Time;durP1;ratioP1;P1;durP2;ratioP2;P2;SDS_P1;SDS_P2;PMS_P1;PMS_P2;Temp;Humidity;BMP_temperature;BMP_pressure;BME280_temperature;BME280_humidity;BME280_pressure;Samples;Min_cycle;Max_cycle;Signal;HPM_P1;HPM_P2
2024/01/29 00:01:39;;;;;;;76.10;40.90;;;;;;;-1.13;84.52;99125.71;104759;1260;103238;-87
2024/01/29 00:04:07;;;;;;;87.40;42.80;;;;;;;-1.14;84.55;99121.56;104732;1259;101479;-84
2024/01/29 00:06:38;;;;;;;122.70;50.30;;;;;;;-1.16;84.55;99117.24;104688;1260;100083;-84
2024/01/29 00:09:05;;;;;;;116.20;49.60;;;;;;;-1.18;84.55;99113.84;104711;1262;97991;-86
2024/01/29 00:11:54;;;;;;;95.60;45.50;;;;;;;-1.20;84.58;99110.23;104762;1258;98426;-85
2024/01/29 00:15:02;;;;;;;77.20;40.30;;;;;;;-1.22;84.57;99107.59;104881;1271;103528;-83
2024/01/29 00:17:30;;;;;;;61.80;36.10;;;;;;;-1.29;84.55;99111.52;104825;1259;101273;-86
2024/01/29 00:19:58;;;;;;;61.80;35.90;;;;;;;-1.35;84.60;99108.55;104728;1257;99025;-75
2024/01/29 00:22:26;;;;;;;61.40;37.20;;;;;;;-1.37;84.60;99108.02;104779;1272;97934;-76
2024/01/29 00:24:54;;;;;;;61.00;36.50;;;;;;;-1.40;84.58;99103.80;104773;1256;98453;-76
2024/01/29 00:27:24;;;;;;;62.60;36.60;;;;;;;-1.45;84.55;99105.00;104818;1259;103587;-76
2024/01/29 00:29:52;;;;;;;54.80;32.30;;;;;;;-1.49;84.55;99102.41;104709;1260;101456;-75
2024/01/29 00:32:19;;;;;;;55.70;31.30;;;;;;;-1.55;84.45;99097.64;104701;1262;98715;-84
2024/01/29 00:34:47;;;;;;;53.70;30.50;;;;;;;-1.61;84.52;99098.23;104810;1259;97892;-86
2024/01/29 00:37:17;;;;;;;54.90;31.80;;;;;;;-1.66;84.52;99104.51;104855;1255;99592;-75
2024/01/29 00:39:45;;;;;;;54.40;30.20;;;;;;;-1.71;84.55;99101.82;104719;1260;103878;-77
2024/01/29 00:42:13;;;;;;;53.30;29.30;;;;;;;-1.74;84.58;99096.73;104781;1259;101384;-76
2024/01/29 00:44:50;;;;;;;52.20;30.20;;;;;;;-1.75;84.64;99092.35;104737;1272;99044;-76
2024/01/29 00:47:22;;;;;;;49.00;29.70;;;;;;;-1.75;84.86;99091.83;104819;1259;99159;-85
2024/01/29 00:49:53;;;;;;;58.30;34.00;;;;;;;-1.73;84.79;99092.63;104735;1260;97944;-87
2024/01/29 00:52:21;;;;;;;45.10;27.60;;;;;;;-1.74;84.66;99098.99;104792;1267;103601;-86
2024/01/29 00:54:52;;;;;;;41.00;23.40;;;;;;;-1.75;84.68;99103.87;104725;1255;100330;-75
2024/01/29 00:57:23;;;;;;;32.90;19.90;;;;;;;-1.76;84.73;99104.26;104851;1259;100023;-74
2024/01/29 00:59:51;;;;;;;31.40;18.40;;;;;;;-1.76;84.64;99110.77;104843;1256;97867;-75
2024/01/29 01:02:26;;;;;;;29.20;19.60;;;;;;;-1.76;84.71;99114.14;104727;1257;98538;-85
2024/01/29 01:04:54;;;;;;;30.90;20.80;;;;;;;-1.77;84.68;99113.32;104850;1259;103687;-86
2024/01/29 01:07:22;;;;;;;30.10;19.20;;;;;;;-1.78;84.59;99119.02;104779;1257;101462;-84
2024/01/29 01:09:50;;;;;;;30.20;19.80;;;;;;;-1.78;84.66;99122.91;104758;1260;99034;-87
2024/01/29 01:12:18;;;;;;;33.30;20.60;;;;;;;-1.79;84.58;99124.35;104809;1269;97947;-84
2024/01/29 01:14:49;;;;;;;33.40;20.30;;;;;;;-1.79;84.52;99124.54;104763;1259;98394;-74
2024/01/29 01:17:17;;;;;;;29.10;18.30;;;;;;;-1.79;84.45;99128.44;104664;1257;102586;-86
2024/01/29 01:19:45;;;;;;;32.10;19.60;;;;;;;-1.81;84.39;99137.55;104765;1259;101695;-87
2024/01/29 01:22:15;;;;;;;32.80;18.80;;;;;;;-1.83;84.28;99138.20;104894;1259;99965;-86
2024/01/29 01:24:43;;;;;;;33.50;20.00;;;;;;;-1.86;84.20;99143.68;104799;1260;98224;-85
2024/01/29 01:27:21;;;;;;;29.70;19.50;;;;;;;-1.90;84.18;99141.09;104786;1257;98425;-85
2024/01/29 01:29:49;;;;;;;31.10;19.90;;;;;;;-1.91;84.13;99146.77;104764;1259;111664;-86
2024/01/29 01:32:20;;;;;;;32.00;18.60;;;;;;;-1.92;84.22;99144.55;104786;1259;101411;-75
2024/01/29 01:34:48;;;;;;;30.90;19.70;;;;;;;-1.92;84.18;99144.37;104717;1260;99009;-75
2024/01/29 01:37:15;;;;;;;29.00;18.30;;;;;;;-1.93;84.24;99142.14;104752;1261;99219;-75
2024/01/29 01:39:47;;;;;;;29.10;17.70;;;;;;;-1.95;84.14;99142.61;104802;1259;98370;-76
2024/01/29 01:42:17;;;;;;;28.50;18.30;;;;;;;-1.98;84.14;99144.55;104757;1262;103621;-75
2024/01/29 01:45:07;;;;;;;28.40;18.10;;;;;;;-2.01;84.15;99143.32;104699;1271;101084;-77
2024/01/29 01:47:36;;;;;;;28.50;17.80;;;;;;;-2.03;84.13;99139.72;104767;1259;99780;-85
2024/01/29 01:50:10;;;;;;;32.40;18.70;;;;;;;-2.05;84.06;99135.80;104733;1257;99235;-87
2024/01/29 01:52:39;;;;;;;29.90;18.80;;;;;;;-2.06;84.01;99131.64;104812;1259;98841;-74
2024/01/29 01:55:07;;;;;;;26.90;17.50;;;;;;;-2.07;83.96;99134.91;104911;1259;103644;-75
2024/01/29 01:57:38;;;;;;;29.90;17.90;;;;;;;-2.09;83.86;99136.25;104703;1262;100474;-76
2024/01/29 02:00:11;;;;;;;26.50;17.10;;;;;;;-2.11;83.89;99135.48;104840;1259;98650;-76
2024/01/29 02:02:39;;;;;;;31.10;18.00;;;;;;;-2.13;83.87;99134.20;104786;1257;99309;-73
2024/01/29 02:05:07;;;;;;;31.30;20.80;;;;;;;-2.16;83.87;99137.33;104678;1262;98434;-73
2024/01/29 02:07:35;;;;;;;34.80;21.10;;;;;;;-2.18;83.88;99135.70;104703;1262;103818;-74
2024/01/29 02:10:07;;;;;;;32.70;21.00;;;;;;;-2.18;83.89;99125.33;104754;1257;101294;-78
2024/01/29 02:12:34;;;;;;;22.60;13.80;;;;;;;-2.20;83.82;99122.60;104880;1259;99977;-73
2024/01/29 02:15:05;;;;;;;28.30;18.70;;;;;;;-2.23;83.86;99124.19;104718;1259;97989;-75
2024/01/29 02:17:33;;;;;;;31.10;20.90;;;;;;;-2.27;83.79;99118.91;104765;1262;97918;-84
2024/01/29 02:20:00;;;;;;;35.10;21.10;;;;;;;-2.31;83.76;99117.06;104790;1262;103425;-87
2024/01/29 02:22:28;;;;;;;33.80;22.90;;;;;;;-2.34;83.79;99117.42;104767;1259;101545;-84
2024/01/29 02:24:56;;;;;;;32.70;21.90;;;;;;;-2.34;83.84;99118.30;104832;1259;99995;-87
2024/01/29 02:27:24;;;;;;;30.00;19.50;;;;;;;-2.36;83.83;99112.77;104800;1256;98111;-83
2024/01/29 02:29:52;;;;;;;31.00;19.10;;;;;;;-2.38;83.88;99104.98;104761;1260;98443;-86
2024/01/29 02:32:20;;;;;;;31.50;20.20;;;;;;;-2.40;83.85;99099.23;104720;1260;102252;-75
2024/01/29 02:34:48;;;;;;;28.30;19.50;;;;;;;-2.40;83.93;99099.42;104767;1259;100335;-75
2024/01/29 02:37:19;;;;;;;27.90;17.90;;;;;;;-2.42;83.90;99102.07;104712;1259;99824;-77
2024/01/29 02:39:50;;;;;;;25.90;18.00;;;;;;;-2.45;83.89;99104.84;104710;1257;98040;-80
2024/01/29 02:42:19;;;;;;;29.40;19.20;;;;;;;-2.49;83.83;99110.36;104773;1257;98440;-73
2024/01/29 02:44:47;;;;;;;29.20;18.30;;;;;;;-2.54;83.82;99110.81;104725;1259;110144;-75
2024/01/29 02:47:16;;;;;;;26.90;18.10;;;;;;;-2.57;83.92;99108.91;104733;1256;101505;-76
2024/01/29 02:49:46;;;;;;;27.80;17.20;;;;;;;-2.61;83.79;99113.48;104750;1260;99016;-85
2024/01/29 02:52:14;;;;;;;29.60;18.20;;;;;;;-2.63;83.86;99112.38;104761;1254;99254;-73
2024/01/29 02:54:42;;;;;;;26.70;16.60;;;;;;;-2.62;83.92;99115.70;104689;1259;98460;-75
2024/01/29 02:57:10;;;;;;;27.40;17.60;;;;;;;-2.63;83.90;99116.09;104796;1256;103520;-75
2024/01/29 02:59:41;;;;;;;28.10;18.50;;;;;;;-2.66;83.85;99119.98;104728;1259;101676;-75
2024/01/29 03:02:09;;;;;;;25.40;16.00;;;;;;;-2.67;83.87;99116.52;104763;1260;100267;-75
2024/01/29 03:04:37;;;;;;;23.10;14.80;;;;;;;-2.68;83.79;99112.52;104773;1259;98091;-72
2024/01/29 03:07:05;;;;;;;22.30;14.20;;;;;;;-2.69;83.79;99111.36;104791;1271;98434;-73
2024/01/29 03:09:32;;;;;;;23.00;14.60;;;;;;;-2.70;83.80;99114.92;104804;1271;103618;-84
2024/01/29 03:12:00;;;;;;;24.30;15.70;;;;;;;-2.71;83.73;99117.08;104733;1257;101416;-74
2024/01/29 03:14:28;;;;;;;23.40;15.90;;;;;;;-2.72;83.73;99119.59;104744;1259;99967;-73
2024/01/29 03:16:56;;;;;;;24.60;15.20;;;;;;;-2.73;83.74;99119.17;104786;1259;97939;-73
2024/01/29 03:19:24;;;;;;;24.50;15.80;;;;;;;-2.75;83.68;99125.78;104808;1260;98523;-73
2024/01/29 03:21:54;;;;;;;24.80;15.70;;;;;;;-2.78;83.65;99131.27;104768;1259;102472;-73
2024/01/29 03:24:22;;;;;;;21.50;14.20;;;;;;;-2.82;83.65;99131.64;104793;1260;101444;-73
2024/01/29 03:26:49;;;;;;;25.40;17.20;;;;;;;-2.82;83.68;99130.77;104747;1260;100162;-73
2024/01/29 03:29:19;;;;;;;39.70;24.40;;;;;;;-2.83;83.81;99131.16;104738;1262;98305;-75
2024/01/29 03:31:47;;;;;;;34.30;23.50;;;;;;;-2.83;83.91;99131.52;104801;1258;99506;-77
2024/01/29 03:34:15;;;;;;;29.30;17.60;;;;;;;-2.84;83.97;99128.41;104785;1260;102399;-75
2024/01/29 03:36:44;;;;;;;26.20;16.20;;;;;;;-2.86;83.94;99127.63;104758;1260;101064;-73
2024/01/29 03:39:13;;;;;;;20.70;13.20;;;;;;;-2.85;83.98;99125.80;104645;1260;100221;-74
2024/01/29 03:41:40;;;;;;;23.80;14.70;;;;;;;-2.84;84.02;99121.91;104677;1263;97996;-74
2024/01/29 03:44:08;;;;;;;25.40;15.20;;;;;;;-2.82;84.06;99121.23;104818;1271;98424;-74
2024/01/29 03:46:36;;;;;;;30.40;19.90;;;;;;;-2.81;84.01;99123.33;104736;1257;103719;-75
2024/01/29 03:49:04;;;;;;;21.70;14.00;;;;;;;-2.81;84.01;99122.25;104725;1259;101384;-74
2024/01/29 03:51:32;;;;;;;21.10;13.10;;;;;;;-2.82;83.97;99124.80;104700;1262;100039;-76
2024/01/29 03:54:00;;;;;;;21.70;13.40;;;;;;;-2.83;84.00;99124.14;104713;1259;99195;-75
2024/01/29 03:56:28;;;;;;;21.60;13.00;;;;;;;-2.84;83.91;99118.03;104794;1260;98430;-78
2024/01/29 03:58:55;;;;;;;18.40;13.40;;;;;;;-2.85;83.92;99112.98;104768;1257;103572;-76
2024/01/29 04:01:29;;;;;;;21.50;15.00;;;;;;;-2.86;83.86;99116.16;104900;1261;100299;-86
2024/01/29 04:03:58;;;;;;;20.60;14.40;;;;;;;-2.87;83.86;99114.28;104745;1261;100061;-86
2024/01/29 04:06:26;;;;;;;21.60;14.40;;;;;;;-2.87;83.85;99113.41;104655;1259;98408;-85
2024/01/29 04:08:54;;;;;;;20.70;14.10;;;;;;;-2.90;83.78;99111.14;104651;1272;98524;-73
2024/01/29 04:11:21;;;;;;;19.70;13.70;;;;;;;-2.93;83.76;99109.90;104690;1260;103533;-73
2024/01/29 04:13:53;;;;;;;19.80;14.10;;;;;;;-2.93;83.88;99118.55;104717;1262;101379;-74
2024/01/29 04:16:24;;;;;;;22.00;15.10;;;;;;;-2.95;83.80;99115.81;104684;1260;100030;-78
2024/01/29 04:18:52;;;;;;;17.10;11.60;;;;;;;-2.98;83.68;99116.69;104729;1270;97884;-73
2024/01/29 04:21:20;;;;;;;21.20;15.00;;;;;;;-3.00;83.69;99114.50;104747;1262;98418;-73
2024/01/29 04:23:48;;;;;;;19.80;13.30;;;;;;;-3.01;83.72;99112.61;104821;1273;103077;-73
2024/01/29 04:26:15;;;;;;;21.20;14.00;;;;;;;-3.02;83.62;99114.08;104765;1263;101107;-74
2024/01/29 04:28:47;;;;;;;21.40;14.10;;;;;;;-3.02;83.58;99112.02;104634;1258;100146;-76
2024/01/29 04:31:15;;;;;;;19.10;13.50;;;;;;;-3.02;83.59;99108.30;104675;1275;97932;-72
2024/01/29 04:33:44;;;;;;;18.90;12.70;;;;;;;-3.04;83.52;99108.97;104877;1260;98443;-72
2024/01/29 04:36:15;;;;;;;17.80;12.30;;;;;;;-3.04;83.51;99108.08;104697;1257;103806;-74
2024/01/29 04:38:43;;;;;;;19.60;13.80;;;;;;;-3.05;83.41;99106.55;104959;1264;101655;-74
2024/01/29 04:41:21;;;;;;;18.70;12.60;;;;;;;-3.08;83.33;99106.51;104765;1259;99965;-73
2024/01/29 04:43:49;;;;;;;22.40;14.00;;;;;;;-3.10;83.29;99104.33;104920;1269;98009;-73
2024/01/29 04:46:17;;;;;;;21.90;15.80;;;;;;;-3.11;83.28;99106.52;104799;1269;98408;-80
2024/01/29 04:48:44;;;;;;;23.30;15.80;;;;;;;-3.12;83.22;99107.98;104760;1260;103644;-80
2024/01/29 04:51:13;;;;;;;24.40;16.60;;;;;;;-3.17;83.10;99106.66;104756;1270;100587;-79
2024/01/29 04:53:41;;;;;;;23.50;17.00;;;;;;;-3.21;82.99;99106.72;104960;1269;99587;-79
2024/01/29 04:56:08;;;;;;;24.70;18.00;;;;;;;-3.24;83.03;99108.28;104859;1259;98002;-82
2024/01/29 04:58:36;;;;;;;28.00;19.00;;;;;;;-3.30;83.07;99108.57;104685;1260;98351;-81
2024/01/29 05:01:04;;;;;;;28.90;19.40;;;;;;;-3.33;83.10;99109.30;104692;1257;103837;-74
2024/01/29 05:03:32;;;;;;;27.50;17.40;;;;;;;-3.36;83.12;99110.31;104884;1269;100326;-75
2024/01/29 05:06:00;;;;;;;27.50;18.60;;;;;;;-3.38;83.01;99108.66;104720;1267;100165;-82
2024/01/29 05:08:27;;;;;;;25.50;18.00;;;;;;;-3.41;83.08;99107.98;104757;1258;98074;-83
2024/01/29 05:10:55;;;;;;;30.30;17.80;;;;;;;-3.44;83.13;99109.88;104622;1271;98440;-83
2024/01/29 05:13:23;;;;;;;24.90;16.60;;;;;;;-3.44;83.11;99107.60;104869;1260;102621;-82
2024/01/29 05:15:50;;;;;;;25.30;17.50;;;;;;;-3.44;83.09;99105.00;104845;1259;101334;-74
2024/01/29 05:18:18;;;;;;;24.30;16.90;;;;;;;-3.46;83.05;99103.84;104541;1262;177130;-74
2024/01/29 05:20:46;;;;;;;24.40;17.20;;;;;;;-3.47;83.05;99104.21;104741;1259;98077;-73
2024/01/29 05:23:14;;;;;;;28.90;17.50;;;;;;;-3.49;83.03;99101.38;104810;1260;98361;-73
2024/01/29 05:25:41;;;;;;;27.00;17.10;;;;;;;-3.52;83.00;99101.20;104733;1270;103752;-73
2024/01/29 05:28:09;;;;;;;23.20;16.30;;;;;;;-3.54;83.09;99101.48;104743;1270;101116;-75
2024/01/29 05:30:37;;;;;;;35.90;21.60;;;;;;;-3.55;83.14;99099.79;104720;1273;99946;-74
2024/01/29 05:33:04;;;;;;;37.20;21.30;;;;;;;-3.56;83.25;99100.70;104713;1270;97935;-72
2024/01/29 05:35:32;;;;;;;38.60;23.20;;;;;;;-3.55;83.33;99099.07;104739;1260;98354;-72
2024/01/29 05:38:00;;;;;;;40.50;22.80;;;;;;;-3.56;83.33;99097.34;104709;1270;103545;-72
2024/01/29 05:40:27;;;;;;;38.30;22.80;;;;;;;-3.60;83.28;99097.92;104777;1263;101590;-72
2024/01/29 05:42:55;;;;;;;50.60;26.70;;;;;;;-3.65;83.26;99099.75;104752;1270;99864;-74
2024/01/29 05:45:23;;;;;;;48.70;24.30;;;;;;;-3.65;83.48;99099.23;104660;1270;98027;-83
2024/01/29 05:47:52;;;;;;;42.80;23.30;;;;;;;-3.64;83.49;99103.08;104783;1260;99292;-75
2024/01/29 05:50:19;;;;;;;40.40;23.50;;;;;;;-3.62;83.53;99099.65;104793;1259;103573;-72
2024/01/29 05:52:47;;;;;;;35.00;21.00;;;;;;;-3.62;83.43;99103.98;104728;1270;101252;-72
2024/01/29 05:55:15;;;;;;;36.60;20.60;;;;;;;-3.61;83.46;99107.11;104792;1259;100824;-72
2024/01/29 05:57:43;;;;;;;33.70;21.00;;;;;;;-3.60;83.44;99112.16;104815;1270;99254;-73
2024/01/29 06:00:11;;;;;;;31.10;17.90;;;;;;;-3.60;83.39;99112.86;104774;1263;99139;-73
2024/01/29 06:02:43;;;;;;;27.80;18.70;;;;;;;-3.60;83.31;99112.52;104852;1261;103648;-83
2024/01/29 06:05:11;;;;;;;25.90;18.40;;;;;;;-3.60;83.36;99114.27;104803;1264;101398;-83
2024/01/29 06:07:40;;;;;;;29.50;18.70;;;;;;;-3.61;83.30;99116.08;104707;1269;100108;-87
2024/01/29 06:10:10;;;;;;;27.50;19.20;;;;;;;-3.63;83.37;99120.76;104863;1278;99253;-81
2024/01/29 06:12:37;;;;;;;31.10;22.10;;;;;;;-3.63;83.44;99122.55;104811;1270;98427;-81
2024/01/29 06:15:06;;;;;;;32.60;21.70;;;;;;;-3.63;83.39;99123.93;104801;1264;103340;-81
2024/01/29 06:17:34;;;;;;;35.40;22.10;;;;;;;-3.63;83.34;99120.95;104675;1270;101210;-81
2024/01/29 06:20:03;;;;;;;35.50;22.60;;;;;;;-3.63;83.29;99122.73;104723;1274;98724;-81
2024/01/29 06:22:31;;;;;;;31.40;20.60;;;;;;;-3.63;83.40;99125.02;104803;1271;98022;-82
2024/01/29 06:24:58;;;;;;;30.60;19.40;;;;;;;-3.63;83.37;99128.88;104698;1269;99807;-74
2024/01/29 06:27:26;;;;;;;30.80;19.10;;;;;;;-3.63;83.33;99130.48;104697;1258;103570;-75
2024/01/29 06:29:54;;;;;;;33.00;20.10;;;;;;;-3.64;83.16;99126.11;104685;1269;101488;-73
2024/01/29 06:32:21;;;;;;;32.00;19.70;;;;;;;-3.63;83.21;99132.42;104759;1260;100167;-80
2024/01/29 06:34:56;;;;;;;33.10;20.20;;;;;;;-3.62;83.30;99131.30;104662;1267;97991;-81
2024/01/29 06:37:24;;;;;;;33.30;21.10;;;;;;;-3.62;83.27;99132.15;104842;1260;98411;-79
2024/01/29 06:39:52;;;;;;;33.60;21.40;;;;;;;-3.61;83.27;99134.06;104797;1271;103184;-79
2024/01/29 06:42:20;;;;;;;30.30;18.90;;;;;;;-3.61;83.27;99136.52;104688;1261;101383;-81
2024/01/29 06:44:48;;;;;;;30.50;21.00;;;;;;;-3.65;83.23;99132.86;104681;1256;108007;-76
2024/01/29 06:47:17;;;;;;;29.20;19.20;;;;;;;-3.68;83.25;99132.66;104763;1260;97967;-72
2024/01/29 06:49:45;;;;;;;33.60;21.90;;;;;;;-3.71;83.22;99135.81;104771;1270;98348;-72
2024/01/29 06:52:13;;;;;;;32.70;21.00;;;;;;;-3.72;83.27;99139.56;104652;1260;103598;-72
2024/01/29 06:54:40;;;;;;;35.30;22.20;;;;;;;-3.72;83.33;99140.77;104727;1270;101403;-72
2024/01/29 06:57:08;;;;;;;36.80;22.00;;;;;;;-3.70;83.43;99143.70;104690;1260;99625;-72
2024/01/29 06:59:36;;;;;;;39.90;23.20;;;;;;;-3.68;83.47;99143.77;104834;1270;97903;-72
2024/01/29 07:02:05;;;;;;;43.20;26.70;;;;;;;-3.66;83.47;99146.80;104743;1278;99238;-79
2024/01/29 07:04:33;;;;;;;42.40;26.30;;;;;;;-3.63;83.50;99149.30;104942;1260;103737;-80
2024/01/29 07:07:01;;;;;;;47.40;30.10;;;;;;;-3.62;83.54;99148.33;104887;1260;100405;-79
2024/01/29 07:09:30;;;;;;;41.10;27.10;;;;;;;-3.61;83.49;99151.09;104768;1257;98980;-79
2024/01/29 07:11:58;;;;;;;51.00;31.00;;;;;;;-3.60;83.48;99148.04;104752;1260;98032;-79
2024/01/29 07:14:26;;;;;;;50.50;31.90;;;;;;;-3.60;83.52;99150.50;104815;1270;99170;-79
2024/01/29 07:16:54;;;;;;;42.30;26.00;;;;;;;-3.57;83.61;99152.67;104796;1270;103553;-79
2024/01/29 07:19:25;;;;;;;37.60;23.30;;;;;;;-3.54;83.69;99151.27;104563;1268;100504;-82
2024/01/29 07:21:53;;;;;;;42.60;25.20;;;;;;;-3.53;83.76;99153.49;104685;1270;99910;-80
2024/01/29 07:24:21;;;;;;;42.60;25.00;;;;;;;-3.50;83.77;99152.29;104789;1269;98747;-80
2024/01/29 07:26:48;;;;;;;45.70;29.90;;;;;;;-3.46;83.87;99151.38;104784;1270;98453;-80
2024/01/29 07:29:17;;;;;;;52.20;32.20;;;;;;;-3.43;83.92;99154.38;104830;1267;103210;-80
2024/01/29 07:31:45;;;;;;;45.30;29.40;;;;;;;-3.40;83.94;99150.34;104783;1270;101245;-80
2024/01/29 07:34:13;;;;;;;43.40;28.70;;;;;;;-3.36;84.02;99149.25;104798;1258;99273;-80
2024/01/29 07:36:41;;;;;;;56.40;34.30;;;;;;;-3.31;84.10;99149.13;104728;1257;98008;-81
2024/01/29 07:39:09;;;;;;;81.40;49.00;;;;;;;-3.25;84.22;99151.98;104772;1270;97980;-71
2024/01/29 07:41:37;;;;;;;75.80;49.40;;;;;;;-3.19;84.31;99150.11;104676;1261;102610;-72
2024/01/29 07:44:05;;;;;;;60.40;38.50;;;;;;;-3.14;84.40;99148.42;104769;1270;101404;-72
2024/01/29 07:46:33;;;;;;;58.40;36.30;;;;;;;-3.08;84.53;99145.27;104636;1270;99982;-73
2024/01/29 07:49:03;;;;;;;58.50;36.00;;;;;;;-3.01;84.57;99144.66;104722;1271;97930;-74
2024/01/29 07:51:31;;;;;;;68.10;42.50;;;;;;;-2.94;84.69;99141.86;104782;1261;98565;-73
2024/01/29 07:53:59;;;;;;;48.80;32.30;;;;;;;-2.87;84.72;99144.63;104744;1260;103657;-73
2024/01/29 07:56:26;;;;;;;60.50;37.80;;;;;;;-2.80;84.80;99144.19;104823;1269;101381;-73
2024/01/29 07:58:54;;;;;;;53.10;36.70;;;;;;;-2.72;84.89;99146.75;104897;1256;99602;-74
2024/01/29 08:01:22;;;;;;;50.00;33.40;;;;;;;-2.63;84.94;99146.60;104791;1270;99227;-73
2024/01/29 08:03:49;;;;;;;46.20;31.70;;;;;;;-2.55;85.00;99144.52;104731;1270;98585;-73
2024/01/29 08:06:17;;;;;;;41.50;25.50;;;;;;;-2.45;85.13;99137.13;104708;1270;103485;-73
2024/01/29 08:08:46;;;;;;;39.80;22.60;;;;;;;-2.36;85.12;99133.80;104759;1278;101356;-73
2024/01/29 08:11:14;;;;;;;38.70;21.40;;;;;;;-2.27;85.21;99130.59;104814;1270;99934;-73
2024/01/29 08:13:41;;;;;;;47.00;24.90;;;;;;;-2.17;85.24;99127.67;104773;1270;97932;-73
2024/01/29 08:16:09;;;;;;;38.90;23.80;;;;;;;-2.06;85.29;99124.05;104860;1267;97877;-83
2024/01/29 08:18:37;;;;;;;45.30;24.00;;;;;;;-1.96;85.23;99123.43;104776;1257;103578;-73
2024/01/29 08:21:04;;;;;;;42.30;25.20;;;;;;;-1.85;85.28;99122.42;104786;1269;101197;-74
2024/01/29 08:23:32;;;;;;;42.00;25.80;;;;;;;-1.74;85.25;99124.77;104741;1260;100401;-74
2024/01/29 08:26:00;;;;;;;42.90;25.60;;;;;;;-1.64;85.23;99127.02;104773;1263;97915;-75
2024/01/29 08:28:28;;;;;;;39.80;25.00;;;;;;;-1.54;85.28;99128.85;104789;1260;98345;-75
2024/01/29 08:30:58;;;;;;;43.30;25.90;;;;;;;-1.43;85.31;99129.03;104788;1261;103786;-80
2024/01/29 08:33:28;;;;;;;40.90;24.10;;;;;;;-1.32;85.41;99131.73;104720;1262;101381;-80
2024/01/29 08:35:56;;;;;;;41.80;24.10;;;;;;;-1.22;85.37;99129.11;104882;1263;99922;-78
2024/01/29 08:38:24;;;;;;;39.30;23.30;;;;;;;-1.10;85.40;99125.36;104826;1257;98850;-74
2024/01/29 08:40:52;;;;;;;34.50;19.80;;;;;;;-0.97;85.36;99123.70;104723;1260;99136;-74
2024/01/29 08:43:20;;;;;;;36.80;21.00;;;;;;;-0.84;85.47;99122.14;104791;1260;103465;-74
2024/01/29 08:45:47;;;;;;;37.90;20.40;;;;;;;-0.70;85.45;99125.30;104772;1261;101647;-74
2024/01/29 08:48:15;;;;;;;34.40;19.60;;;;;;;-0.57;85.49;99126.52;104700;1273;99634;-74
2024/01/29 08:50:43;;;;;;;33.60;19.70;;;;;;;-0.39;85.54;99126.94;104818;1270;97952;-74
2024/01/29 08:53:11;;;;;;;33.50;18.60;;;;;;;-0.21;85.50;99128.07;104793;1261;97947;-74
2024/01/29 08:55:39;;;;;;;33.10;17.50;;;;;;;-0.06;85.41;99131.10;104627;1257;103658;-74
2024/01/29 08:58:06;;;;;;;33.50;18.40;;;;;;;0.09;85.16;99128.09;104747;1261;101117;-74
2024/01/29 09:00:34;;;;;;;38.10;20.30;;;;;;;0.26;85.11;99126.26;104599;1261;100119;-73
2024/01/29 09:03:02;;;;;;;32.00;17.00;;;;;;;0.44;85.04;99129.65;104834;1260;97948;-71
2024/01/29 09:05:30;;;;;;;26.90;15.60;;;;;;;0.61;84.81;99133.59;104827;1263;98373;-71
2024/01/29 09:07:58;;;;;;;31.10;16.20;;;;;;;0.76;84.64;99141.16;104708;1270;102678;-72
2024/01/29 09:10:25;;;;;;;32.30;16.00;;;;;;;0.94;84.55;99138.13;104790;1260;101437;-72
2024/01/29 09:12:53;;;;;;;24.80;15.20;;;;;;;1.15;84.43;99136.82;104747;1271;100022;-72
2024/01/29 09:15:21;;;;;;;24.50;14.90;;;;;;;1.39;84.44;99135.25;104659;1257;99229;-73
2024/01/29 09:17:48;;;;;;;24.20;13.90;;;;;;;1.59;84.31;99139.02;104728;1258;99605;-73
2024/01/29 09:20:16;;;;;;;25.40;14.10;;;;;;;1.83;84.01;99138.71;104771;1260;103471;-73
2024/01/29 09:22:44;;;;;;;23.30;13.20;;;;;;;2.06;83.62;99140.36;104674;1260;101663;-73
2024/01/29 09:25:12;;;;;;;20.90;12.00;;;;;;;2.25;83.14;99138.85;104747;1258;100120;-73
2024/01/29 09:27:41;;;;;;;25.70;12.70;;;;;;;2.42;82.71;99140.71;104750;1261;98118;-73
2024/01/29 09:30:09;;;;;;;23.90;13.20;;;;;;;2.59;82.52;99139.77;104757;1269;98417;-73
2024/01/29 09:32:37;;;;;;;17.90;12.10;;;;;;;2.77;82.26;99138.69;104794;1266;103492;-82
2024/01/29 09:35:05;;;;;;;21.60;12.20;;;;;;;2.95;82.33;99137.64;104720;1260;101739;-74
2024/01/29 09:37:33;;;;;;;21.30;12.80;;;;;;;3.14;82.03;99137.02;104759;1260;100020;-72
2024/01/29 09:40:00;;;;;;;20.90;11.60;;;;;;;3.33;81.40;99131.95;104805;1261;97931;-72
2024/01/29 09:42:32;;;;;;;20.80;11.30;;;;;;;3.50;81.14;99131.82;104774;1270;98373;-72
2024/01/29 09:45:01;;;;;;;19.10;11.90;;;;;;;3.68;81.06;99137.96;104868;1263;103633;-72
2024/01/29 09:47:31;;;;;;;18.50;10.30;;;;;;;3.87;80.99;99136.17;104770;1261;101402;-80
2024/01/29 09:50:00;;;;;;;22.50;11.20;;;;;;;4.06;80.40;99132.85;104855;1270;98954;-80
2024/01/29 09:52:28;;;;;;;20.60;12.20;;;;;;;4.22;79.53;99131.42;104784;1259;99211;-80
2024/01/29 09:54:57;;;;;;;19.10;11.40;;;;;;;4.38;79.02;99127.09;104865;1270;98444;-81
2024/01/29 09:57:25;;;;;;;21.40;12.30;;;;;;;4.56;78.75;99130.31;104841;1257;104677;-80
2024/01/29 09:59:52;;;;;;;19.10;11.80;;;;;;;4.74;77.93;99130.77;104760;1268;101290;-80
2024/01/29 10:02:22;;;;;;;21.00;11.80;;;;;;;4.93;78.09;99126.41;104749;1259;99972;-81
2024/01/29 10:04:50;;;;;;;17.70;10.90;;;;;;;5.13;77.37;99125.00;104766;1260;97915;-80
2024/01/29 10:07:18;;;;;;;18.80;11.00;;;;;;;5.32;77.08;99121.45;104806;1269;98472;-81
2024/01/29 10:09:45;;;;;;;18.20;9.60;;;;;;;5.56;77.18;99121.15;104774;1269;103569;-81
2024/01/29 10:12:28;;;;;;;16.20;10.20;;;;;;;5.80;76.20;99117.27;104797;1275;101463;-81
2024/01/29 10:14:56;;;;;;;21.20;11.20;;;;;;;6.17;75.27;99121.05;104710;1260;98968;-81
2024/01/29 10:17:25;;;;;;;16.00;9.80;;;;;;;6.61;74.96;99122.26;104656;1270;98069;-81
2024/01/29 10:19:52;;;;;;;16.40;9.60;;;;;;;6.95;74.20;99116.27;104937;1257;98444;-80
2024/01/29 10:22:25;;;;;;;15.20;8.80;;;;;;;7.21;73.36;99111.85;104777;1270;103764;-81
2024/01/29 10:25:03;;;;;;;13.40;8.30;;;;;;;7.34;72.45;99108.04;104930;1261;101408;-81
2024/01/29 10:27:31;;;;;;;13.60;8.60;;;;;;;7.38;72.00;99106.98;104598;1260;99531;-81
2024/01/29 10:29:59;;;;;;;11.90;7.80;;;;;;;7.42;71.86;99101.73;104819;1261;99272;-81
2024/01/29 10:32:27;;;;;;;14.30;8.50;;;;;;;7.51;71.52;99099.16;104767;1260;98529;-72
2024/01/29 10:34:55;;;;;;;13.00;8.00;;;;;;;7.63;71.07;99095.55;104751;1270;104100;-75
2024/01/29 10:37:23;;;;;;;11.10;7.30;;;;;;;7.77;70.74;99090.19;104797;1270;101082;-75
2024/01/29 10:39:54;;;;;;;12.20;7.90;;;;;;;7.93;70.53;99088.60;104762;1261;99001;-75
2024/01/29 10:42:26;;;;;;;11.60;7.50;;;;;;;8.12;70.87;99083.79;104704;1260;97998;-78
2024/01/29 10:44:59;;;;;;;12.80;7.70;;;;;;;8.37;70.26;99081.56;104888;1259;98060;-78
2024/01/29 10:47:34;;;;;;;9.90;7.00;;;;;;;8.64;69.58;99085.27;104866;1261;103221;-85
2024/01/29 10:50:02;;;;;;;12.70;7.70;;;;;;;8.87;68.83;99082.14;104855;1261;101626;-85
2024/01/29 10:52:31;;;;;;;12.80;8.00;;;;;;;9.06;68.58;99083.55;104796;1260;100246;-75
2024/01/29 10:55:00;;;;;;;11.70;7.50;;;;;;;9.26;67.83;99086.30;104775;1260;97909;-74
2024/01/29 10:57:31;;;;;;;13.30;7.30;;;;;;;9.43;67.28;99084.44;104894;1260;98344;-75
2024/01/29 11:00:00;;;;;;;12.20;7.60;;;;;;;9.63;66.92;99082.79;104880;1270;103389;-75
2024/01/29 11:02:30;;;;;;;17.20;10.00;;;;;;;9.87;66.16;99073.09;104876;1259;102319;-78
2024/01/29 11:04:57;;;;;;;15.30;8.60;;;;;;;10.01;64.87;99073.14;104877;1258;98936;-78
2024/01/29 11:07:29;;;;;;;11.50;7.50;;;;;;;10.11;64.52;99072.73;104746;1260;98381;-78
2024/01/29 11:10:06;;;;;;;12.60;8.00;;;;;;;10.21;64.44;99069.67;104901;1259;97817;-78
2024/01/29 11:12:34;;;;;;;11.90;7.80;;;;;;;10.34;63.82;99065.77;104870;1259;102604;-79
2024/01/29 11:15:05;;;;;;;12.30;7.90;;;;;;;10.51;63.29;99069.39;104863;1259;101722;-79